Time;durP1;ratioP1;P1;durP2;ratioP2;P2;SDS_P1;SDS_P2;PMS_P1;PMS_P2;Temp;Humidity;BMP_temperature;BMP_pressure;BME280_temperature;BME280_humidity;BME280_pressure;Samples;Min_cycle;Max_cycle;Signal;HPM_P1;HPM_P2
2023/01/16 00:01:56;;;;;;;8.55;5.78;;;3.60;99.90;;;;;;5134843;27;20549;-43
2023/01/16 00:04:22;;;;;;;11.82;5.47;;;3.60;99.90;;;;;;5134146;27;20566;-43
2023/01/16 00:06:48;;;;;;;9.93;4.82;;;3.60;99.90;;;;;;5133403;27;20043;-43
2023/01/16 00:09:14;;;;;;;11.07;4.18;;;3.60;99.90;;;;;;5116748;27;20366;-42
2023/01/16 00:11:40;;;;;;;9.02;4.30;;;3.60;99.90;;;;;;5116474;27;20050;-43
2023/01/16 00:14:06;;;;;;;7.03;3.90;;;3.70;99.90;;;;;;5133665;27;20050;-43
2023/01/16 00:16:31;;;;;;;6.45;3.75;;;3.70;99.90;;;;;;5133946;27;20047;-43
2023/01/16 00:18:57;;;;;;;9.27;3.90;;;3.80;99.90;;;;;;5099461;28;20039;-43
2023/01/16 00:21:26;;;;;;;7.90;3.72;;;3.80;99.90;;;;;;5133726;27;20039;-42
2023/01/16 00:23:59;;;;;;;7.13;3.80;;;3.80;99.90;;;;;;5134554;27;20043;-43
2023/01/16 00:26:26;;;;;;;9.27;4.20;;;3.80;99.90;;;;;;5116402;28;20058;-43
2023/01/16 00:28:52;;;;;;;10.93;4.28;;;3.90;99.90;;;;;;5113682;28;20046;-43
2023/01/16 00:31:18;;;;;;;8.15;3.90;;;3.80;99.90;;;;;;5134278;28;20124;-42
2023/01/16 00:33:44;;;;;;;7.85;5.32;;;3.90;99.90;;;;;;5116497;28;20087;-43
2023/01/16 00:36:11;;;;;;;6.78;4.60;;;3.90;99.90;;;;;;5134608;28;20136;-42
2023/01/16 00:38:37;;;;;;;7.65;5.07;;;4.00;99.90;;;;;;5133527;28;20050;-42
2023/01/16 00:41:02;;;;;;;8.95;5.38;;;3.90;99.90;;;;;;5133882;28;20043;-42
2023/01/16 00:43:28;;;;;;;12.75;5.53;;;3.90;99.90;;;;;;5133567;28;20039;-42
2023/01/16 00:45:56;;;;;;;9.00;5.28;;;3.90;99.90;;;;;;5115758;28;20058;-42
2023/01/16 00:48:22;;;;;;;9.48;4.93;;;4.00;99.90;;;;;;5115273;28;20070;-42
2023/01/16 00:50:48;;;;;;;7.70;5.15;;;4.00;99.90;;;;;;5134434;28;20082;-42
2023/01/16 00:53:14;;;;;;;7.25;5.40;;;4.00;99.90;;;;;;5134075;28;20456;-42
2023/01/16 00:55:41;;;;;;;8.18;5.65;;;4.00;99.90;;;;;;5134379;28;20050;-42
2023/01/16 00:58:10;;;;;;;10.68;5.80;;;4.00;99.90;;;;;;5133738;27;20505;-42
2023/01/16 01:00:37;;;;;;;11.70;5.60;;;3.90;99.90;;;;;;5137108;27;20450;-42
2023/01/16 01:03:04;;;;;;;11.73;5.53;;;4.00;99.90;;;;;;5138346;27;20047;-42
2023/01/16 01:05:30;;;;;;;12.27;5.93;;;3.90;99.90;;;;;;5138942;27;20180;-42
2023/01/16 01:07:56;;;;;;;10.68;5.28;;;3.90;99.90;;;;;;5138266;27;20184;-42
2023/01/16 01:10:22;;;;;;;8.52;5.22;;;3.80;99.90;;;;;;5135349;27;20130;-42
2023/01/16 01:12:47;;;;;;;11.25;4.75;;;3.90;99.90;;;;;;5119742;27;20480;-42
2023/01/16 01:15:13;;;;;;;11.15;5.47;;;3.90;99.90;;;;;;5119904;27;20046;-42
2023/01/16 01:17:39;;;;;;;13.35;4.75;;;3.80;99.90;;;;;;5103437;27;20043;-42
2023/01/16 01:20:05;;;;;;;10.63;4.50;;;3.80;99.90;;;;;;5136685;27;20066;-42
2023/01/16 01:22:31;;;;;;;7.88;4.97;;;3.70;99.90;;;;;;5137829;27;20423;-42
2023/01/16 01:24:57;;;;;;;9.02;4.50;;;3.70;99.90;;;;;;5136917;27;20054;-42
2023/01/16 01:27:22;;;;;;;13.77;5.13;;;3.70;99.90;;;;;;5136664;27;20043;-42
2023/01/16 01:29:48;;;;;;;9.77;4.95;;;3.60;99.90;;;;;;5136809;27;20123;-42
2023/01/16 01:32:14;;;;;;;9.68;4.35;;;3.60;99.90;;;;;;5118772;27;20058;-42
2023/01/16 01:34:40;;;;;;;11.63;4.68;;;3.50;99.90;;;;;;5120528;27;20350;-42
2023/01/16 01:37:07;;;;;;;11.65;4.45;;;3.40;99.90;;;;;;5136564;27;20039;-42
2023/01/16 01:39:33;;;;;;;9.00;4.00;;;3.50;99.90;;;;;;5137588;27;20378;-42
2023/01/16 01:44:55;;;;;;;13.88;4.60;;;3.40;99.90;;;;;;5137881;27;20450;-42
2023/01/16 01:47:34;;;;;;;10.95;4.18;;;3.40;99.90;;;;;;5120239;27;20055;-42
2023/01/16 01:50:04;;;;;;;10.52;3.90;;;3.30;99.90;;;;;;5103264;27;20111;-42
2023/01/16 01:52:31;;;;;;;9.13;4.07;;;3.30;99.90;;;;;;5136302;27;20424;-42
2023/01/16 01:55:03;;;;;;;11.13;4.00;;;3.40;99.90;;;;;;5137388;27;20054;-42
2023/01/16 01:57:37;;;;;;;5.60;3.72;;;3.40;99.90;;;;;;5137441;27;20046;-42
2023/01/16 02:00:03;;;;;;;9.90;3.22;;;3.40;99.90;;;;;;5137324;27;20054;-42
2023/01/16 02:02:33;;;;;;;11.23;3.67;;;3.40;99.90;;;;;;5117843;27;20044;-42
2023/01/16 02:05:00;;;;;;;8.38;4.28;;;3.40;99.90;;;;;;5136176;27;20047;-42
2023/01/16 02:07:27;;;;;;;6.47;3.00;;;3.40;99.90;;;;;;5137144;27;20043;-42
2023/01/16 02:09:59;;;;;;;11.85;3.30;;;3.40;99.90;;;;;;5137321;27;20156;-42
2023/01/16 02:12:26;;;;;;;10.57;4.07;;;3.40;99.90;;;;;;5136069;27;20039;-42
2023/01/16 02:14:55;;;;;;;11.48;3.80;;;3.40;99.90;;;;;;5118835;27;20096;-42
2023/01/16 02:20:22;;;;;;;7.45;3.60;;;3.40;99.90;;;;;;5117753;27;20079;-42
2023/01/16 02:23:19;;;;;;;11.35;3.35;;;3.40;99.90;;;;;;5135887;27;20050;-42
2023/01/16 02:26:20;;;;;;;11.93;3.40;;;3.30;99.90;;;;;;5132204;27;20047;-42
2023/01/16 02:29:03;;;;;;;12.43;3.70;;;3.30;99.90;;;;;;5115115;28;20044;-42
2023/01/16 02:31:32;;;;;;;14.63;3.78;;;3.30;99.90;;;;;;5117253;27;20118;-42
2023/01/16 02:34:04;;;;;;;11.60;3.97;;;3.30;99.90;;;;;;5136474;27;20047;-42
2023/01/16 02:36:42;;;;;;;10.05;3.38;;;3.40;99.90;;;;;;5135585;27;20055;-42
2023/01/16 02:39:29;;;;;;;8.38;3.28;;;3.30;99.90;;;;;;5118760;27;20042;-42
2023/01/16 02:42:10;;;;;;;13.02;3.40;;;3.30;99.90;;;;;;5117286;27;20125;-42
2023/01/16 02:44:57;;;;;;;12.90;3.90;;;3.30;99.90;;;;;;5136278;27;20051;-42
2023/01/16 02:48:16;;;;;;;8.60;3.40;;;3.30;99.90;;;;;;5135729;27;20492;-42
2023/01/16 02:50:54;;;;;;;10.13;3.20;;;3.30;99.90;;;;;;5052797;28;20458;-42
2023/01/16 02:53:26;;;;;;;6.30;2.80;;;3.30;99.90;;;;;;5136251;27;20103;-42
2023/01/16 02:56:02;;;;;;;8.35;3.33;;;3.20;99.90;;;;;;5116847;27;20054;-42
2023/01/16 02:58:31;;;;;;;9.80;4.65;;;3.20;99.90;;;;;;5135856;27;20054;-42
2023/01/16 03:00:59;;;;;;;9.27;3.53;;;3.20;99.90;;;;;;5135431;27;20065;-42
2023/01/16 03:03:42;;;;;;;8.77;3.50;;;3.20;99.90;;;;;;5118113;27;20066;-42
2023/01/16 03:06:47;;;;;;;8.63;4.10;;;3.20;99.90;;;;;;5117532;27;20055;-41
2023/01/16 03:09:28;;;;;;;11.38;4.60;;;3.30;99.90;;;;;;5097377;28;20397;-42
2023/01/16 03:11:53;;;;;;;9.80;4.10;;;3.30;99.90;;;;;;5125243;27;20413;-42
2023/01/16 03:14:35;;;;;;;14.63;5.20;;;3.30;99.90;;;;;;5133627;27;20051;-42
2023/01/16 03:17:01;;;;;;;8.02;4.10;;;3.30;99.90;;;;;;5134754;27;20051;-41
2023/01/16 03:19:42;;;;;;;10.70;3.35;;;3.30;99.90;;;;;;5135733;27;20103;-42
2023/01/16 03:22:07;;;;;;;7.93;4.00;;;3.30;99.90;;;;;;5135044;27;20496;-41
2023/01/16 03:25:00;;;;;;;10.55;4.10;;;3.30;99.90;;;;;;5116480;27;20051;-42
2023/01/16 03:27:39;;;;;;;13.50;4.45;;;3.30;99.90;;;;;;5116271;27;20059;-42
2023/01/16 03:30:24;;;;;;;8.93;4.30;;;3.30;99.90;;;;;;5117483;27;20039;-42
2023/01/16 03:32:56;;;;;;;13.18;4.15;;;3.30;99.90;;;;;;5134326;27;20189;-41
2023/01/16 03:35:21;;;;;;;11.98;4.13;;;3.30;99.90;;;;;;5135416;27;20053;-42
2023/01/16 03:37:53;;;;;;;12.10;4.00;;;3.30;99.90;;;;;;5134457;27;20138;-42
2023/01/16 03:40:26;;;;;;;10.23;3.92;;;3.30;99.90;;;;;;5134728;27;20062;-42
2023/01/16 03:43:22;;;;;;;11.48;4.15;;;3.30;99.90;;;;;;5135541;27;20127;-42
2023/01/16 03:45:57;;;;;;;14.85;4.28;;;3.30;99.90;;;;;;5120324;27;20051;-41
2023/01/16 03:48:40;;;;;;;8.13;4.43;;;3.40;99.90;;;;;;5133036;27;20098;-41
2023/01/16 03:51:08;;;;;;;10.15;4.43;;;3.40;99.90;;;;;;5117513;27;20047;-41
2023/01/16 03:53:41;;;;;;;14.48;5.10;;;3.40;99.90;;;;;;5134028;27;20040;-42
2023/01/16 03:56:20;;;;;;;;;;;3.50;99.90;;;;;;5115287;28;20048;-41
2023/01/16 03:58:51;;;;;;;10.70;4.77;;;3.50;99.90;;;;;;5117946;27;19958;-42
2023/01/16 04:01:53;;;;;;;10.63;5.07;;;3.50;99.90;;;;;;5133943;27;20484;-42
2023/01/16 04:04:53;;;;;;;11.18;4.93;;;3.50;99.90;;;;;;5134001;27;20074;-42
2023/01/16 04:07:30;;;;;;;11.95;4.97;;;3.60;99.90;;;;;;5079553;27;20051;-42
2023/01/16 04:09:57;;;;;;;9.70;4.18;;;3.70;99.90;;;;;;5133787;27;20400;-41
2023/01/16 04:12:30;;;;;;;10.88;4.78;;;3.70;99.90;;;;;;5133914;27;20103;-42
2023/01/16 04:15:00;;;;;;;8.77;4.35;;;3.70;99.90;;;;;;5135732;27;20422;-42
2023/01/16 04:17:27;;;;;;;11.68;5.10;;;3.70;99.90;;;;;;5115736;27;20047;-42
2023/01/16 04:19:53;;;;;;;11.73;5.57;;;3.70;99.90;;;;;;5132878;27;20064;-41
2023/01/16 04:22:27;;;;;;;12.45;5.43;;;3.70;99.90;;;;;;5114679;28;20043;-42
2023/01/16 04:24:56;;;;;;;8.32;4.72;;;3.60;99.90;;;;;;5116606;27;20541;-41
2023/01/16 04:27:23;;;;;;;13.00;5.13;;;3.70;99.90;;;;;;5134584;28;20089;-41
2023/01/16 04:29:49;;;;;;;7.72;5.25;;;3.60;99.90;;;;;;5133588;28;20043;-41
2023/01/16 04:32:16;;;;;;;10.85;6.50;;;3.60;99.90;;;;;;5133477;27;20039;-41
2023/01/16 04:34:42;;;;;;;9.07;5.30;;;3.60;99.90;;;;;;5136392;27;20054;-41
2023/01/16 04:37:09;;;;;;;13.63;5.78;;;3.60;99.90;;;;;;5121092;27;20039;-41
2023/01/16 04:39:34;;;;;;;13.32;6.00;;;3.60;99.90;;;;;;5119649;27;20125;-42
2023/01/16 04:42:00;;;;;;;12.45;5.75;;;3.60;99.90;;;;;;5138530;27;20142;-41
2023/01/16 04:44:26;;;;;;;13.27;6.22;;;3.60;99.90;;;;;;5139388;27;20426;-41
2023/01/16 04:46:51;;;;;;;15.35;6.10;;;3.60;99.90;;;;;;5115405;28;20094;-42
2023/01/16 04:49:17;;;;;;;12.60;6.45;;;3.60;99.90;;;;;;5118029;28;20043;-41
2023/01/16 04:51:43;;;;;;;10.98;6.07;;;3.60;99.90;;;;;;5115462;28;20122;-41
2023/01/16 04:54:14;;;;;;;14.77;7.43;;;3.60;99.90;;;;;;5117388;28;20050;-41
2023/01/16 04:56:40;;;;;;;17.80;8.35;;;3.60;99.90;;;;;;5117898;28;20104;-41
2023/01/16 04:59:06;;;;;;;14.68;7.35;;;3.70;99.90;;;;;;5116970;28;20518;-41
2023/01/16 05:01:34;;;;;;;14.25;7.38;;;3.60;99.90;;;;;;5115773;28;20078;-41
2023/01/16 05:04:05;;;;;;;15.65;9.00;;;3.60;99.90;;;;;;5115318;28;20062;-41
2023/01/16 05:06:32;;;;;;;16.63;8.32;;;3.60;99.90;;;;;;5114983;28;20059;-41
2023/01/16 05:08:58;;;;;;;17.60;8.45;;;3.60;99.90;;;;;;5116622;28;20047;-42
2023/01/16 05:11:23;;;;;;;18.85;9.77;;;3.60;99.90;;;;;;5117436;28;20116;-41
2023/01/16 05:13:49;;;;;;;16.17;8.50;;;3.50;99.90;;;;;;5116459;28;20493;-41
2023/01/16 05:16:15;;;;;;;15.55;8.15;;;3.40;99.90;;;;;;5116611;28;20119;-41
2023/01/16 05:18:41;;;;;;;16.33;8.75;;;3.30;99.90;;;;;;5117491;28;20039;-40
2023/01/16 05:21:06;;;;;;;17.50;8.93;;;3.20;99.90;;;;;;5117506;28;20051;-41
2023/01/16 05:23:33;;;;;;;16.42;8.20;;;2.90;99.90;;;;;;5116076;28;20482;-41
2023/01/16 05:25:59;;;;;;;18.27;8.90;;;2.80;99.90;;;;;;5115960;28;20489;-42
2023/01/16 05:28:25;;;;;;;14.00;8.38;;;2.60;99.90;;;;;;5117278;28;20412;-41
2023/01/16 05:30:51;;;;;;;19.42;9.70;;;2.50;99.90;;;;;;5117347;28;20138;-41
2023/01/16 05:33:17;;;;;;;17.35;9.05;;;2.40;99.90;;;;;;5117848;28;20075;-41
2023/01/16 05:35:44;;;;;;;17.60;8.73;;;2.30;99.90;;;;;;5117475;28;20044;-41
2023/01/16 05:38:10;;;;;;;16.38;9.23;;;2.30;99.90;;;;;;5113675;28;20126;-41
2023/01/16 05:40:35;;;;;;;24.55;10.10;;;2.10;99.90;;;;;;5117085;28;20135;-41
2023/01/16 05:43:01;;;;;;;21.23;9.68;;;2.00;99.90;;;;;;5116661;28;20046;-41
2023/01/16 05:45:27;;;;;;;18.63;9.93;;;2.20;99.90;;;;;;5124051;27;20048;-41
2023/01/16 05:47:53;;;;;;;20.00;10.40;;;1.90;99.90;;;;;;5136712;27;20523;-40
2023/01/16 05:50:18;;;;;;;23.60;10.10;;;1.90;99.90;;;;;;5119099;27;20366;-40
2023/01/16 05:52:44;;;;;;;21.73;11.57;;;1.90;99.90;;;;;;5135137;27;20132;-40
2023/01/16 05:55:10;;;;;;;26.10;12.35;;;2.00;99.90;;;;;;5137310;27;20130;-41
2023/01/16 05:57:36;;;;;;;28.73;12.80;;;2.00;99.90;;;;;;5101370;27;20097;-41
2023/01/16 06:00:02;;;;;;;32.37;14.07;;;2.00;99.90;;;;;;5118666;27;20047;-41
2023/01/16 06:02:28;;;;;;;25.77;13.70;;;2.00;99.90;;;;;;5137082;27;20035;-41
2023/01/16 06:04:53;;;;;;;32.60;14.95;;;2.00;99.90;;;;;;5135203;27;20043;-41
2023/01/16 06:07:19;;;;;;;27.52;14.50;;;2.00;99.90;;;;;;5137332;27;20061;-41
2023/01/16 06:09:45;;;;;;;31.05;13.75;;;2.00;99.90;;;;;;5136237;27;20050;-40
2023/01/16 06:12:15;;;;;;;31.85;14.50;;;2.00;99.90;;;;;;5137062;27;20103;-41
2023/01/16 06:14:41;;;;;;;29.95;14.25;;;2.00;99.90;;;;;;5137037;27;20441;-41
2023/01/16 06:17:07;;;;;;;30.17;14.77;;;2.10;99.90;;;;;;5137263;27;20465;-39
2023/01/16 06:19:33;;;;;;;32.28;14.75;;;2.00;99.90;;;;;;5134968;27;20071;-41
2023/01/16 06:21:58;;;;;;;34.92;14.85;;;2.00;99.90;;;;;;5101045;27;20090;-41
2023/01/16 06:24:24;;;;;;;30.25;15.00;;;2.10;99.90;;;;;;5136817;27;20385;-40
2023/01/16 06:26:50;;;;;;;32.00;14.82;;;2.10;99.90;;;;;;5136967;27;20050;-40
2023/01/16 06:29:15;;;;;;;30.77;14.65;;;2.20;99.90;;;;;;5118732;27;20570;-41
2023/01/16 06:31:41;;;;;;;32.63;14.82;;;2.30;99.90;;;;;;5115932;27;20043;-40
2023/01/16 06:34:07;;;;;;;34.78;15.60;;;2.40;99.90;;;;;;5136658;27;20095;-40
2023/01/16 06:36:33;;;;;;;31.00;15.30;;;2.50;99.90;;;;;;5136632;27;20053;-41
2023/01/16 06:38:59;;;;;;;32.40;17.25;;;2.70;99.90;;;;;;5118450;27;20139;-41
2023/01/16 06:41:24;;;;;;;35.85;16.38;;;2.70;99.90;;;;;;5136466;27;20039;-41
2023/01/16 06:43:50;;;;;;;33.38;16.15;;;2.80;99.90;;;;;;5117154;27;20557;-41
2023/01/16 06:46:16;;;;;;;31.60;15.40;;;2.80;99.90;;;;;;5112163;28;20048;-41
2023/01/16 06:48:41;;;;;;;30.33;14.90;;;2.70;99.90;;;;;;5096099;28;20036;-41
2023/01/16 06:51:09;;;;;;;27.90;14.90;;;2.70;99.90;;;;;;5114593;27;20039;-41
2023/01/16 06:53:35;;;;;;;37.92;15.63;;;2.60;99.90;;;;;;5113870;28;20171;-40
2023/01/16 06:56:01;;;;;;;34.97;17.48;;;2.60;99.90;;;;;;5114829;28;20044;-41
2023/01/16 06:58:27;;;;;;;32.42;15.75;;;2.60;99.90;;;;;;5114467;28;20066;-41
2023/01/16 07:00:54;;;;;;;28.60;15.13;;;2.60;99.90;;;;;;5114495;27;20043;-41
2023/01/16 07:03:21;;;;;;;33.67;14.95;;;2.50;99.90;;;;;;5113362;28;20044;-40
2023/01/16 07:05:46;;;;;;;27.95;14.23;;;2.50;99.90;;;;;;5115176;28;20494;-41
2023/01/16 07:08:13;;;;;;;29.50;15.13;;;2.50;99.90;;;;;;5115452;28;20047;-40
2023/01/16 07:10:39;;;;;;;28.27;14.27;;;2.40;99.90;;;;;;5114484;28;20050;-41
2023/01/16 07:13:04;;;;;;;30.45;14.85;;;2.40;99.90;;;;;;5115216;28;20040;-41
2023/01/16 07:24:03;;;;;;;31.60;15.10;;;2.20;99.90;;;;;;5095638;28;20044;-41
2023/01/16 07:26:29;;;;;;;34.05;15.15;;;2.10;99.90;;;;;;5108285;28;20051;-41
2023/01/16 07:28:57;;;;;;;31.52;15.07;;;2.10;99.90;;;;;;5112834;28;20054;-41
2023/01/16 07:31:23;;;;;;;33.95;16.25;;;2.10;99.90;;;;;;5114149;28;20036;-41
2023/01/16 07:33:49;;;;;;;30.27;14.57;;;2.10;99.90;;;;;;5114840;28;20043;-41
2023/01/16 07:36:15;;;;;;;28.85;15.27;;;2.00;99.90;;;;;;5115183;28;20366;-41
2023/01/16 07:38:40;;;;;;;32.88;15.65;;;2.10;99.90;;;;;;5097067;28;20062;-40
2023/01/16 07:41:06;;;;;;;30.50;14.27;;;2.10;99.90;;;;;;5114080;28;20048;-39
2023/01/16 07:43:32;;;;;;;33.72;15.98;;;2.10;99.90;;;;;;5112403;28;20067;-40
2023/01/16 07:45:58;;;;;;;30.80;14.95;;;2.00;99.90;;;;;;5126692;27;20159;-41
2023/01/16 07:48:25;;;;;;;34.08;15.60;;;2.00;99.90;;;;;;5135214;27;20127;-41
2023/01/16 07:50:56;;;;;;;32.47;17.73;;;2.00;99.90;;;;;;5135199;27;20485;-41
2023/01/16 07:53:24;;;;;;;33.63;14.70;;;2.10;99.90;;;;;;5115964;27;20109;-41
2023/01/16 07:55:57;;;;;;;29.42;14.20;;;2.00;99.90;;;;;;5135140;27;20093;-40
2023/01/16 07:58:23;;;;;;;31.40;15.45;;;2.00;99.90;;;;;;5135107;27;20046;-40
2023/01/16 08:00:51;;;;;;;35.17;15.20;;;2.00;99.90;;;;;;5135835;27;20103;-41
2023/01/16 08:03:17;;;;;;;27.80;12.80;;;2.10;99.90;;;;;;5133947;27;20039;-41
2023/01/16 08:05:43;;;;;;;32.75;14.05;;;2.10;99.90;;;;;;5134981;27;20039;-41
2023/01/16 08:08:09;;;;;;;29.27;13.68;;;2.10;99.90;;;;;;5134865;27;20385;-40
2023/01/16 08:10:36;;;;;;;28.42;13.07;;;2.20;99.90;;;;;;5135426;27;20107;-41
2023/01/16 08:13:02;;;;;;;30.17;13.00;;;2.20;99.90;;;;;;5134144;27;20082;-42
2023/01/16 08:15:28;;;;;;;24.58;12.38;;;2.20;99.90;;;;;;5133756;27;20441;-41
2023/01/16 08:17:54;;;;;;;31.40;11.95;;;2.20;99.90;;;;;;5134878;27;20096;-41
2023/01/16 08:20:20;;;;;;;25.33;11.43;;;2.20;99.90;;;;;;5134727;27;20050;-41
2023/01/16 08:22:48;;;;;;;24.58;11.27;;;2.30;99.90;;;;;;5134642;27;20035;-41
2023/01/16 08:25:14;;;;;;;24.42;11.00;;;2.30;99.90;;;;;;5134704;27;20092;-41
2023/01/16 08:27:40;;;;;;;23.17;11.82;;;2.40;99.90;;;;;;5134666;27;20100;-41
2023/01/16 08:30:07;;;;;;;25.17;11.82;;;2.40;99.90;;;;;;5134928;27;20043;-41
2023/01/16 08:32:33;;;;;;;22.75;11.35;;;2.40;99.90;;;;;;5134180;28;20047;-41
2023/01/16 08:34:59;;;;;;;24.58;11.55;;;2.50;99.90;;;;;;5116398;28;20050;-41
2023/01/16 08:37:24;;;;;;;20.83;10.90;;;2.50;99.90;;;;;;5134548;28;20469;-41
2023/01/16 08:39:50;;;;;;;25.45;11.13;;;2.60;99.90;;;;;;5116220;28;20082;-41
2023/01/16 08:53:13;;;;;;;28.35;13.48;;;2.80;99.90;;;;;;5134419;28;20477;-41
2023/01/16 08:55:39;;;;;;;29.00;11.90;;;2.90;99.90;;;;;;5134088;28;20042;-41
2023/01/16 08:58:05;;;;;;;27.88;11.52;;;2.90;99.90;;;;;;5134348;28;20046;-41
2023/01/16 09:00:31;;;;;;;27.02;11.95;;;3.00;99.90;;;;;;5134377;28;20530;-41
2023/01/16 09:02:59;;;;;;;24.88;10.50;;;3.00;99.90;;;;;;5115552;28;20070;-41
2023/01/16 09:05:25;;;;;;;20.77;10.43;;;3.10;99.90;;;;;;5099037;28;20453;-41
2023/01/16 09:07:51;;;;;;;22.15;10.40;;;3.10;99.90;;;;;;5135085;28;20047;-41
2023/01/16 09:10:17;;;;;;;25.27;10.73;;;3.10;99.90;;;;;;5134257;28;20085;-41
2023/01/16 09:15:27;;;;;;;20.13;9.50;;;3.20;99.90;;;;;;5134254;28;20138;-41
2023/01/16 09:17:53;;;;;;;17.10;8.57;;;3.20;99.90;;;;;;5115790;28;20130;-41
2023/01/16 09:20:19;;;;;;;20.48;8.93;;;3.20;99.90;;;;;;5136251;27;20100;-41
2023/01/16 09:22:45;;;;;;;19.45;9.15;;;3.30;99.90;;;;;;5102544;27;20039;-41
2023/01/16 09:25:11;;;;;;;23.35;8.50;;;3.30;99.90;;;;;;5120140;27;20086;-41
2023/01/16 09:27:36;;;;;;;18.75;7.72;;;3.40;99.90;;;;;;5102695;27;20049;-41
2023/01/16 09:30:03;;;;;;;16.75;8.10;;;3.40;99.90;;;;;;5137879;27;20046;-41
2023/01/16 09:32:29;;;;;;;17.70;9.57;;;3.40;99.90;;;;;;5138383;27;20035;-41
2023/01/16 09:34:55;;;;;;;14.90;8.85;;;3.50;99.90;;;;;;5119540;27;20137;-41
2023/01/16 09:37:21;;;;;;;15.18;8.23;;;3.60;99.90;;;;;;5137785;27;20039;-41
2023/01/16 09:39:47;;;;;;;15.10;7.72;;;3.50;99.90;;;;;;5137787;27;20043;-41
2023/01/16 09:45:35;;;;;;;12.65;6.43;;;3.60;99.90;;;;;;5118852;27;20085;-41
2023/01/16 09:48:05;;;;;;;12.68;7.07;;;3.60;99.90;;;;;;5119485;27;20126;-41
2023/01/16 09:50:43;;;;;;;15.02;6.32;;;3.70;99.90;;;;;;5137802;27;20389;-41
2023/01/16 09:59:01;;;;;;;13.77;7.65;;;3.70;99.90;;;;;;5137410;27;20053;-41
2023/01/16 10:01:35;;;;;;;13.20;7.18;;;3.70;99.90;;;;;;5137949;27;20047;-41
2023/01/16 10:04:19;;;;;;;13.57;6.72;;;3.70;99.90;;;;;;5137803;27;20415;-41
2023/01/16 10:06:56;;;;;;;;;;;3.70;99.90;;;;;;5137698;27;20134;-41
2023/01/16 10:09:37;;;;;;;10.77;6.72;;;3.70;99.90;;;;;;5138294;27;19923;-41
2023/01/16 10:12:06;;;;;;;16.77;6.72;;;3.80;99.90;;;;;;5137052;27;20055;-41
2023/01/16 10:14:51;;;;;;;13.48;5.95;;;3.90;99.90;;;;;;5137617;27;20058;-41
2023/01/16 10:17:53;;;;;;;10.43;5.88;;;3.70;99.90;;;;;;5119231;27;20054;-41
2023/01/16 10:20:25;;;;;;;13.15;6.28;;;3.80;99.90;;;;;;5137578;27;20441;-41
2023/01/16 10:22:56;;;;;;;8.45;5.13;;;3.80;99.90;;;;;;5102241;27;20488;-41
2023/01/16 10:25:26;;;;;;;12.15;5.18;;;3.80;99.90;;;;;;5137184;27;20054;-39
2023/01/16 10:28:24;;;;;;;15.15;5.22;;;3.80;99.90;;;;;;5137536;27;20043;-40
2023/01/16 10:31:05;;;;;;;10.95;5.30;;;3.80;99.90;;;;;;5098786;27;20094;-40
2023/01/16 10:34:00;;;;;;;9.88;5.55;;;3.80;99.90;;;;;;5137036;27;20051;-41
2023/01/16 10:36:41;;;;;;;9.70;5.50;;;3.90;99.90;;;;;;5082880;27;20090;-41
2023/01/16 10:39:11;;;;;;;12.57;5.43;;;3.90;99.90;;;;;;5119117;27;20039;-42
2023/01/16 10:50:20;;;;;;;8.98;4.70;;;3.90;99.90;;;;;;5136417;27;20485;-43
2023/01/16 10:52:48;;;;;;;12.90;4.78;;;3.90;99.90;;;;;;5117883;27;20149;-42
2023/01/16 10:55:14;;;;;;;10.63;4.47;;;3.90;99.90;;;;;;5136253;27;20125;-42
2023/01/16 10:57:50;;;;;;;9.48;4.35;;;3.90;99.90;;;;;;5100956;27;20047;-41
2023/01/16 11:00:40;;;;;;;11.70;3.95;;;3.90;99.90;;;;;;5136260;27;20043;-42
2023/01/16 11:03:18;;;;;;;11.90;3.78;;;3.80;99.90;;;;;;5116914;27;20047;-42
2023/01/16 11:05:44;;;;;;;6.78;3.90;;;3.70;99.90;;;;;;5101267;27;20051;-42
2023/01/16 11:08:13;;;;;;;7.53;4.10;;;3.70;99.90;;;;;;5135947;27;20051;-42
2023/01/16 11:10:45;;;;;;;5.70;3.30;;;3.60;99.90;;;;;;5135982;27;20039;-42
2023/01/16 11:18:59;;;;;;;4.28;2.40;;;3.30;99.90;;;;;;5135842;27;20130;-43
2023/01/16 11:21:30;;;;;;;5.97;2.47;;;3.20;99.90;;;;;;5135757;27;20043;-43
2023/01/16 11:24:13;;;;;;;5.25;2.55;;;3.20;99.90;;;;;;5135645;27;20055;-43
2023/01/16 11:26:39;;;;;;;3.83;2.20;;;3.20;99.90;;;;;;5136166;27;20047;-43
2023/01/16 11:29:05;;;;;;;4.85;2.35;;;3.20;99.90;;;;;;5117327;27;20392;-43
2023/01/16 11:31:31;;;;;;;4.53;2.30;;;3.10;99.90;;;;;;5135530;27;20043;-43
2023/01/16 11:34:01;;;;;;;6.90;2.88;;;3.10;99.90;;;;;;5117795;27;20084;-43
2023/01/16 11:36:31;;;;;;;3.70;2.40;;;3.20;99.90;;;;;;5135464;27;20492;-43
2023/01/16 11:38:58;;;;;;;3.40;1.88;;;3.20;99.90;;;;;;5134851;27;20123;-44
2023/01/16 11:41:28;;;;;;;4.45;2.55;;;3.10;99.90;;;;;;5135361;27;20480;-44
2023/01/16 11:46:58;;;;;;;3.55;1.70;;;3.10;99.90;;;;;;5135169;27;20104;-43
2023/01/16 11:49:37;;;;;;;4.18;1.77;;;3.10;99.90;;;;;;5117141;27;20082;-43
2023/01/16 11:52:03;;;;;;;2.22;1.50;;;3.10;99.90;;;;;;5136082;27;20054;-44
2023/01/16 11:54:34;;;;;;;4.80;1.73;;;3.00;99.90;;;;;;5116859;27;20090;-43
2023/01/16 11:57:32;;;;;;;4.97;1.60;;;3.00;99.90;;;;;;5135146;27;20125;-44
2023/01/16 12:00:00;;;;;;;6.53;2.53;;;3.00;99.90;;;;;;5117794;27;20047;-44
2023/01/16 12:03:31;;;;;;;3.42;2.00;;;3.00;99.90;;;;;;5117405;27;20377;-44
2023/01/16 12:06:15;;;;;;;3.55;1.88;;;3.00;99.90;;;;;;5043771;28;20056;-43
2023/01/16 12:08:56;;;;;;;2.85;1.73;;;3.00;99.90;;;;;;5050684;28;20053;-43
2023/01/16 12:11:57;;;;;;;6.55;1.98;;;3.10;99.90;;;;;;5124213;27;20496;-43
2023/01/16 12:14:46;;;;;;;4.03;1.80;;;3.10;99.90;;;;;;5089647;27;20082;-43
2023/01/16 12:17:30;;;;;;;2.58;1.80;;;3.10;99.90;;;;;;5135429;27;20050;-44
2023/01/16 12:20:05;;;;;;;3.33;1.70;;;3.60;99.90;;;;;;5134746;27;20043;-44
2023/01/16 12:22:33;;;;;;;3.33;1.40;;;3.10;99.90;;;;;;5134710;27;20088;-43
2023/01/16 12:25:05;;;;;;;3.75;2.17;;;3.10;99.90;;;;;;5134663;27;20111;-44
2023/01/16 12:28:01;;;;;;;4.43;1.75;;;3.10;99.90;;;;;;5134800;27;20046;-44
2023/01/16 12:31:29;;;;;;;3.40;1.67;;;3.10;99.90;;;;;;5135562;27;20131;-44
2023/01/16 12:34:19;;;;;;;3.10;1.50;;;3.20;99.90;;;;;;5051239;28;20060;-44
2023/01/16 12:37:09;;;;;;;3.85;2.00;;;3.20;99.90;;;;;;5135196;28;20188;-43
2023/01/16 12:39:48;;;;;;;2.05;1.60;;;3.20;99.90;;;;;;5099545;28;20062;-43
2023/01/16 12:45:36;;;;;;;4.00;1.95;;;3.20;99.90;;;;;;5135040;28;20059;-43
2023/01/16 12:48:24;;;;;;;3.40;2.03;;;3.20;99.90;;;;;;5135110;28;20084;-43
2023/01/16 12:51:17;;;;;;;2.95;1.92;;;3.10;99.90;;;;;;5134745;28;20043;-43
2023/01/16 12:53:48;;;;;;;3.92;2.95;;;3.20;99.90;;;;;;5135274;27;20047;-43
2023/01/16 12:56:28;;;;;;;3.53;2.20;;;3.20;99.90;;;;;;5120696;27;20155;-43
2023/01/16 12:59:00;;;;;;;3.90;1.90;;;3.20;99.90;;;;;;5120571;27;20520;-43
2023/01/16 13:01:31;;;;;;;4.47;2.25;;;3.20;99.90;;;;;;5139139;27;20047;-43
2023/01/16 13:04:25;;;;;;;3.58;2.00;;;3.30;99.90;;;;;;5120293;27;20043;-43
2023/01/16 13:06:58;;;;;;;;;;;3.30;99.90;;;;;;5138112;27;20134;-42
2023/01/16 13:15:35;;;;;;;7.97;2.78;;;3.40;99.90;;;;;;5137945;27;20450;-43
2023/01/16 13:18:16;;;;;;;3.13;2.47;;;3.40;99.90;;;;;;5139033;27;20415;-43
2023/01/16 13:20:43;;;;;;;4.15;2.88;;;3.40;99.90;;;;;;5138185;27;20043;-43
2023/01/16 13:23:19;;;;;;;5.15;3.05;;;3.40;99.90;;;;;;5138017;27;20047;-43
2023/01/16 13:25:48;;;;;;;4.55;3.17;;;3.40;99.90;;;;;;5138044;27;20051;-43
2023/01/16 13:28:16;;;;;;;4.63;3.20;;;3.40;99.90;;;;;;5119835;27;20485;-44
2023/01/16 13:30:42;;;;;;;2.92;2.53;;;3.50;99.90;;;;;;5137888;27;20050;-44
2023/01/16 13:33:12;;;;;;;3.80;3.08;;;3.50;99.90;;;;;;5137958;27;20043;-43
2023/01/16 13:36:26;;;;;;;4.80;3.17;;;3.50;99.90;;;;;;5138744;27;20506;-43
2023/01/16 13:39:16;;;;;;;3.10;2.47;;;3.50;99.90;;;;;;5113141;27;20053;-43
2023/01/16 13:41:46;;;;;;;8.90;3.00;;;3.50;99.90;;;;;;5119607;27;20055;-43
2023/01/16 13:47:18;;;;;;;3.97;2.65;;;3.60;99.90;;;;;;5119198;27;20055;-44
2023/01/16 13:50:01;;;;;;;7.50;3.08;;;3.60;99.90;;;;;;5137102;27;20050;-44
2023/01/16 13:52:28;;;;;;;5.50;2.80;;;3.60;99.90;;;;;;5119431;27;20043;-43
2023/01/16 13:54:57;;;;;;;6.25;2.95;;;3.80;99.90;;;;;;5137411;27;20126;-42
2023/01/16 13:57:27;;;;;;;4.03;2.88;;;3.60;99.90;;;;;;5137398;27;20082;-43
2023/01/16 13:59:57;;;;;;;3.60;2.88;;;3.70;99.90;;;;;;5118630;27;20118;-43
2023/01/16 14:02:39;;;;;;;7.15;3.20;;;3.70;99.90;;;;;;5117148;27;20426;-43
2023/01/16 14:05:27;;;;;;;4.03;3.05;;;3.70;99.90;;;;;;5137076;27;20043;-43
2023/01/16 14:10:44;;;;;;;5.97;3.05;;;3.70;99.90;;;;;;5137171;27;20058;-43
2023/01/16 14:13:24;;;;;;;4.55;3.17;;;3.70;99.90;;;;;;5102012;27;20050;-43
2023/01/16 14:18:41;;;;;;;5.57;3.33;;;3.70;99.90;;;;;;5117898;27;20130;-43
2023/01/16 14:21:20;;;;;;;6.63;3.72;;;3.80;99.90;;;;;;5102662;27;20043;-43
2023/01/16 14:24:01;;;;;;;7.68;3.45;;;3.90;99.90;;;;;;5135142;27;20040;-43